sensor_id;sensor_type;location;lat;lon;timestamp;P1;durP1;ratioP1;P2;durP2;ratioP2
39370;SDS011;25099;51.946;4.838;2023-07-24T00:01:58;5.07;;;4.63;;
39370;SDS011;25099;51.946;4.838;2023-07-24T00:04:24;5.80;;;4.93;;
39370;SDS011;25099;51.946;4.838;2023-07-24T00:06:49;5.10;;;4.70;;
39370;SDS011;25099;51.946;4.838;2023-07-24T00:09:15;5.30;;;4.90;;
39370;SDS011;25099;51.946;4.838;2023-07-24T00:11:40;5.80;;;4.93;;
39370;SDS011;25099;51.946;4.838;2023-07-24T00:14:06;5.47;;;5.07;;
39370;SDS011;25099;51.946;4.838;2023-07-24T00:16:32;5.10;;;4.70;;
39370;SDS011;25099;51.946;4.838;2023-07-24T00:18:57;5.25;;;4.50;;
39370;SDS011;25099;51.946;4.838;2023-07-24T00:21:23;4.80;;;4.40;;
39370;SDS011;25099;51.946;4.838;2023-07-24T00:23:48;4.80;;;4.30;;
39370;SDS011;25099;51.946;4.838;2023-07-24T00:26:14;4.50;;;4.10;;
39370;SDS011;25099;51.946;4.838;2023-07-24T00:28:39;4.65;;;4.05;;
39370;SDS011;25099;51.946;4.838;2023-07-24T00:31:05;4.28;;;3.65;;
39370;SDS011;25099;51.946;4.838;2023-07-24T00:33:30;4.32;;;4.03;;
39370;SDS011;25099;51.946;4.838;2023-07-24T00:35:56;5.20;;;4.20;;
39370;SDS011;25099;51.946;4.838;2023-07-24T00:38:26;4.50;;;4.10;;
39370;SDS011;25099;51.946;4.838;2023-07-24T00:40:52;3.80;;;3.50;;
39370;SDS011;25099;51.946;4.838;2023-07-24T00:43:17;5.25;;;4.15;;
39370;SDS011;25099;51.946;4.838;2023-07-24T00:45:43;4.47;;;4.07;;
39370;SDS011;25099;51.946;4.838;2023-07-24T00:48:11;4.68;;;4.28;;
39370;SDS011;25099;51.946;4.838;2023-07-24T00:50:37;4.90;;;4.50;;
39370;SDS011;25099;51.946;4.838;2023-07-24T00:53:03;4.82;;;4.10;;
39370;SDS011;25099;51.946;4.838;2023-07-24T00:55:29;3.95;;;3.45;;
39370;SDS011;25099;51.946;4.838;2023-07-24T00:57:56;7.55;;;3.78;;
39370;SDS011;25099;51.946;4.838;2023-07-24T01:00:23;4.85;;;3.67;;
39370;SDS011;25099;51.946;4.838;2023-07-24T01:02:49;4.70;;;4.10;;
39370;SDS011;25099;51.946;4.838;2023-07-24T01:05:15;7.63;;;4.22;;
39370;SDS011;25099;51.946;4.838;2023-07-24T01:07:42;5.55;;;4.97;;
39370;SDS011;25099;51.946;4.838;2023-07-24T01:10:07;5.13;;;3.88;;
39370;SDS011;25099;51.946;4.838;2023-07-24T01:13:21;6.50;;;4.90;;
39370;SDS011;25099;51.946;4.838;2023-07-24T01:15:38;5.05;;;4.65;;
39370;SDS011;25099;51.946;4.838;2023-07-24T01:18:17;5.25;;;4.80;;
39370;SDS011;25099;51.946;4.838;2023-07-24T01:20:48;4.77;;;4.37;;
39370;SDS011;25099;51.946;4.838;2023-07-24T01:23:23;6.50;;;4.57;;
39370;SDS011;25099;51.946;4.838;2023-07-24T01:26:12;7.30;;;4.72;;
39370;SDS011;25099;51.946;4.838;2023-07-24T01:28:38;4.60;;;4.20;;
39370;SDS011;25099;51.946;4.838;2023-07-24T01:31:04;4.88;;;4.15;;
39370;SDS011;25099;51.946;4.838;2023-07-24T01:33:30;4.28;;;3.88;;
39370;SDS011;25099;51.946;4.838;2023-07-24T01:35:59;3.97;;;3.67;;
39370;SDS011;25099;51.946;4.838;2023-07-24T01:38:26;5.10;;;3.63;;
39370;SDS011;25099;51.946;4.838;2023-07-24T01:40:53;3.85;;;3.38;;
39370;SDS011;25099;51.946;4.838;2023-07-24T01:43:19;3.60;;;3.30;;
39370;SDS011;25099;51.946;4.838;2023-07-24T01:45:45;3.67;;;3.28;;
39370;SDS011;25099;51.946;4.838;2023-07-24T01:48:11;6.45;;;4.22;;
39370;SDS011;25099;51.946;4.838;2023-07-24T01:50:36;4.32;;;3.90;;
39370;SDS011;25099;51.946;4.838;2023-07-24T01:53:02;5.97;;;4.10;;
39370;SDS011;25099;51.946;4.838;2023-07-24T01:55:27;4.80;;;4.40;;
39370;SDS011;25099;51.946;4.838;2023-07-24T01:57:53;7.32;;;4.18;;
39370;SDS011;25099;51.946;4.838;2023-07-24T02:00:19;4.60;;;4.20;;
39370;SDS011;25099;51.946;4.838;2023-07-24T02:02:44;6.13;;;3.72;;
39370;SDS011;25099;51.946;4.838;2023-07-24T02:05:10;6.00;;;4.85;;
39370;SDS011;25099;51.946;4.838;2023-07-24T02:07:36;4.38;;;3.45;;
39370;SDS011;25099;51.946;4.838;2023-07-24T02:10:01;4.30;;;3.90;;
39370;SDS011;25099;51.946;4.838;2023-07-24T02:12:27;4.20;;;3.80;;
39370;SDS011;25099;51.946;4.838;2023-07-24T02:14:52;4.50;;;3.80;;
39370;SDS011;25099;51.946;4.838;2023-07-24T02:17:19;5.10;;;4.22;;
39370;SDS011;25099;51.946;4.838;2023-07-24T02:19:45;5.10;;;4.60;;
39370;SDS011;25099;51.946;4.838;2023-07-24T02:22:11;5.63;;;5.13;;
39370;SDS011;25099;51.946;4.838;2023-07-24T02:24:37;5.45;;;5.03;;
39370;SDS011;25099;51.946;4.838;2023-07-24T02:27:02;5.00;;;4.50;;
39370;SDS011;25099;51.946;4.838;2023-07-24T02:29:29;7.28;;;5.47;;
39370;SDS011;25099;51.946;4.838;2023-07-24T02:31:55;6.00;;;5.38;;
39370;SDS011;25099;51.946;4.838;2023-07-24T02:34:20;7.40;;;5.20;;
39370;SDS011;25099;51.946;4.838;2023-07-24T02:36:51;5.30;;;4.80;;
39370;SDS011;25099;51.946;4.838;2023-07-24T02:39:18;7.97;;;5.25;;
39370;SDS011;25099;51.946;4.838;2023-07-24T02:41:43;6.28;;;4.75;;
39370;SDS011;25099;51.946;4.838;2023-07-24T02:44:10;5.60;;;5.10;;
39370;SDS011;25099;51.946;4.838;2023-07-24T02:46:35;9.05;;;5.85;;
39370;SDS011;25099;51.946;4.838;2023-07-24T02:49:01;5.13;;;4.72;;
39370;SDS011;25099;51.946;4.838;2023-07-24T02:51:26;5.40;;;4.60;;
39370;SDS011;25099;51.946;4.838;2023-07-24T02:53:55;8.85;;;4.72;;
39370;SDS011;25099;51.946;4.838;2023-07-24T02:56:21;6.28;;;5.03;;
39370;SDS011;25099;51.946;4.838;2023-07-24T02:58:47;5.82;;;5.30;;
39370;SDS011;25099;51.946;4.838;2023-07-24T03:01:12;5.80;;;5.20;;
39370;SDS011;25099;51.946;4.838;2023-07-24T03:03:39;5.97;;;5.38;;
39370;SDS011;25099;51.946;4.838;2023-07-24T03:06:05;12.05;;;6.53;;
39370;SDS011;25099;51.946;4.838;2023-07-24T03:08:31;5.78;;;4.95;;
39370;SDS011;25099;51.946;4.838;2023-07-24T03:10:56;6.45;;;5.15;;
39370;SDS011;25099;51.946;4.838;2023-07-24T03:13:22;7.38;;;5.47;;
39370;SDS011;25099;51.946;4.838;2023-07-24T03:15:55;5.05;;;4.60;;
39370;SDS011;25099;51.946;4.838;2023-07-24T03:18:22;10.93;;;5.80;;
39370;SDS011;25099;51.946;4.838;2023-07-24T03:20:47;6.18;;;5.57;;
39370;SDS011;25099;51.946;4.838;2023-07-24T03:23:13;5.97;;;5.38;;
39370;SDS011;25099;51.946;4.838;2023-07-24T03:25:39;6.03;;;5.30;;
39370;SDS011;25099;51.946;4.838;2023-07-24T03:28:04;7.82;;;5.65;;
39370;SDS011;25099;51.946;4.838;2023-07-24T03:30:30;6.30;;;5.00;;
39370;SDS011;25099;51.946;4.838;2023-07-24T03:32:57;5.53;;;4.75;;
39370;SDS011;25099;51.946;4.838;2023-07-24T03:35:22;7.18;;;5.18;;
39370;SDS011;25099;51.946;4.838;2023-07-24T03:37:48;6.38;;;4.88;;
39370;SDS011;25099;51.946;4.838;2023-07-24T03:40:14;7.07;;;4.63;;
39370;SDS011;25099;51.946;4.838;2023-07-24T03:42:40;5.80;;;5.05;;
39370;SDS011;25099;51.946;4.838;2023-07-24T03:45:07;6.13;;;5.32;;
39370;SDS011;25099;51.946;4.838;2023-07-24T03:47:33;6.30;;;5.10;;
39370;SDS011;25099;51.946;4.838;2023-07-24T03:49:59;5.65;;;5.15;;
39370;SDS011;25099;51.946;4.838;2023-07-24T03:52:25;7.18;;;6.30;;
39370;SDS011;25099;51.946;4.838;2023-07-24T03:54:51;8.63;;;5.78;;
39370;SDS011;25099;51.946;4.838;2023-07-24T03:57:17;6.35;;;5.75;;
39370;SDS011;25099;51.946;4.838;2023-07-24T03:59:42;6.82;;;5.85;;
39370;SDS011;25099;51.946;4.838;2023-07-24T04:02:08;7.10;;;5.75;;
39370;SDS011;25099;51.946;4.838;2023-07-24T04:04:34;10.18;;;6.53;;
39370;SDS011;25099;51.946;4.838;2023-07-24T04:07:00;6.20;;;5.68;;
39370;SDS011;25099;51.946;4.838;2023-07-24T04:09:26;6.10;;;5.38;;
39370;SDS011;25099;51.946;4.838;2023-07-24T04:11:51;7.70;;;6.85;;
39370;SDS011;25099;51.946;4.838;2023-07-24T04:14:17;6.40;;;5.68;;
39370;SDS011;25099;51.946;4.838;2023-07-24T04:16:42;8.05;;;7.07;;
39370;SDS011;25099;51.946;4.838;2023-07-24T04:19:08;6.38;;;5.78;;
39370;SDS011;25099;51.946;4.838;2023-07-24T04:21:34;6.70;;;5.85;;
39370;SDS011;25099;51.946;4.838;2023-07-24T04:23:59;8.13;;;6.43;;
39370;SDS011;25099;51.946;4.838;2023-07-24T04:26:25;7.32;;;6.60;;
39370;SDS011;25099;51.946;4.838;2023-07-24T04:28:50;8.23;;;6.25;;
39370;SDS011;25099;51.946;4.838;2023-07-24T04:31:16;7.63;;;6.22;;
39370;SDS011;25099;51.946;4.838;2023-07-24T04:33:41;5.90;;;5.30;;
39370;SDS011;25099;51.946;4.838;2023-07-24T04:36:07;9.00;;;5.93;;
39370;SDS011;25099;51.946;4.838;2023-07-24T04:38:33;6.18;;;5.57;;
39370;SDS011;25099;51.946;4.838;2023-07-24T04:41:01;8.63;;;5.85;;
39370;SDS011;25099;51.946;4.838;2023-07-24T04:43:27;10.13;;;5.95;;
39370;SDS011;25099;51.946;4.838;2023-07-24T04:45:53;11.77;;;6.07;;
39370;SDS011;25099;51.946;4.838;2023-07-24T04:48:19;8.02;;;6.20;;
39370;SDS011;25099;51.946;4.838;2023-07-24T04:50:45;7.60;;;6.90;;
39370;SDS011;25099;51.946;4.838;2023-07-24T04:53:10;7.25;;;6.35;;
39370;SDS011;25099;51.946;4.838;2023-07-24T04:55:36;7.82;;;6.70;;
39370;SDS011;25099;51.946;4.838;2023-07-24T04:58:01;8.80;;;7.03;;
39370;SDS011;25099;51.946;4.838;2023-07-24T05:00:27;9.95;;;6.35;;
39370;SDS011;25099;51.946;4.838;2023-07-24T05:02:53;9.65;;;7.78;;
39370;SDS011;25099;51.946;4.838;2023-07-24T05:05:18;7.43;;;6.45;;
39370;SDS011;25099;51.946;4.838;2023-07-24T05:07:44;9.88;;;7.18;;
39370;SDS011;25099;51.946;4.838;2023-07-24T05:10:10;8.02;;;6.90;;
39370;SDS011;25099;51.946;4.838;2023-07-24T05:12:35;7.45;;;6.75;;
39370;SDS011;25099;51.946;4.838;2023-07-24T05:15:01;8.63;;;7.47;;
39370;SDS011;25099;51.946;4.838;2023-07-24T05:17:27;10.00;;;6.85;;
39370;SDS011;25099;51.946;4.838;2023-07-24T05:19:53;13.68;;;7.32;;
39370;SDS011;25099;51.946;4.838;2023-07-24T05:22:18;8.15;;;7.38;;
39370;SDS011;25099;51.946;4.838;2023-07-24T05:24:44;9.38;;;6.95;;
39370;SDS011;25099;51.946;4.838;2023-07-24T05:27:09;12.32;;;7.60;;
39370;SDS011;25099;51.946;4.838;2023-07-24T05:29:37;11.25;;;7.05;;
39370;SDS011;25099;51.946;4.838;2023-07-24T05:32:02;8.45;;;6.82;;
39370;SDS011;25099;51.946;4.838;2023-07-24T05:34:28;15.85;;;7.50;;
39370;SDS011;25099;51.946;4.838;2023-07-24T05:36:54;10.60;;;7.78;;
39370;SDS011;25099;51.946;4.838;2023-07-24T05:39:19;12.57;;;6.65;;
39370;SDS011;25099;51.946;4.838;2023-07-24T05:41:46;14.05;;;7.10;;
39370;SDS011;25099;51.946;4.838;2023-07-24T05:44:13;10.88;;;6.63;;
39370;SDS011;25099;51.946;4.838;2023-07-24T05:46:38;9.23;;;7.32;;
39370;SDS011;25099;51.946;4.838;2023-07-24T05:49:04;12.68;;;7.50;;
39370;SDS011;25099;51.946;4.838;2023-07-24T05:51:29;11.93;;;6.95;;
39370;SDS011;25099;51.946;4.838;2023-07-24T05:53:55;11.02;;;7.97;;
39370;SDS011;25099;51.946;4.838;2023-07-24T05:56:20;11.48;;;7.95;;
39370;SDS011;25099;51.946;4.838;2023-07-24T05:58:46;13.88;;;8.32;;
39370;SDS011;25099;51.946;4.838;2023-07-24T06:01:11;17.17;;;9.00;;
39370;SDS011;25099;51.946;4.838;2023-07-24T06:03:37;14.30;;;7.95;;
39370;SDS011;25099;51.946;4.838;2023-07-24T06:06:06;19.75;;;8.10;;
39370;SDS011;25099;51.946;4.838;2023-07-24T06:08:31;11.20;;;8.57;;
39370;SDS011;25099;51.946;4.838;2023-07-24T06:10:57;12.70;;;8.02;;
39370;SDS011;25099;51.946;4.838;2023-07-24T06:13:23;11.38;;;7.85;;
39370;SDS011;25099;51.946;4.838;2023-07-24T06:15:49;15.95;;;8.80;;
39370;SDS011;25099;51.946;4.838;2023-07-24T06:18:15;16.55;;;8.88;;
39370;SDS011;25099;51.946;4.838;2023-07-24T06:20:41;11.25;;;7.32;;
39370;SDS011;25099;51.946;4.838;2023-07-24T06:23:06;9.13;;;7.22;;
39370;SDS011;25099;51.946;4.838;2023-07-24T06:25:32;12.43;;;7.22;;
39370;SDS011;25099;51.946;4.838;2023-07-24T06:27:58;13.63;;;7.57;;
39370;SDS011;25099;51.946;4.838;2023-07-24T06:30:25;13.32;;;7.03;;
39370;SDS011;25099;51.946;4.838;2023-07-24T06:32:50;12.70;;;7.47;;
39370;SDS011;25099;51.946;4.838;2023-07-24T06:35:16;7.65;;;6.53;;
39370;SDS011;25099;51.946;4.838;2023-07-24T06:37:42;9.70;;;8.15;;
39370;SDS011;25099;51.946;4.838;2023-07-24T06:40:08;9.57;;;6.85;;
39370;SDS011;25099;51.946;4.838;2023-07-24T06:42:34;10.95;;;6.47;;
39370;SDS011;25099;51.946;4.838;2023-07-24T06:45:00;7.07;;;5.65;;
39370;SDS011;25099;51.946;4.838;2023-07-24T06:47:26;11.43;;;6.60;;
39370;SDS011;25099;51.946;4.838;2023-07-24T06:49:51;8.55;;;6.25;;
39370;SDS011;25099;51.946;4.838;2023-07-24T06:52:17;7.63;;;6.13;;
39370;SDS011;25099;51.946;4.838;2023-07-24T06:54:43;9.27;;;6.00;;
39370;SDS011;25099;51.946;4.838;2023-07-24T06:57:08;12.77;;;6.25;;
39370;SDS011;25099;51.946;4.838;2023-07-24T06:59:34;8.85;;;6.22;;
39370;SDS011;25099;51.946;4.838;2023-07-24T07:01:59;9.55;;;6.45;;
39370;SDS011;25099;51.946;4.838;2023-07-24T07:04:25;11.70;;;7.20;;
39370;SDS011;25099;51.946;4.838;2023-07-24T07:06:50;9.07;;;6.93;;
39370;SDS011;25099;51.946;4.838;2023-07-24T07:09:16;9.65;;;6.15;;
39370;SDS011;25099;51.946;4.838;2023-07-24T07:11:42;9.02;;;6.78;;
39370;SDS011;25099;51.946;4.838;2023-07-24T07:14:10;12.75;;;6.72;;
39370;SDS011;25099;51.946;4.838;2023-07-24T07:16:36;8.25;;;7.18;;
39370;SDS011;25099;51.946;4.838;2023-07-24T07:19:01;10.32;;;7.18;;
39370;SDS011;25099;51.946;4.838;2023-07-24T07:21:27;10.27;;;7.45;;
39370;SDS011;25099;51.946;4.838;2023-07-24T07:23:53;9.70;;;7.53;;
39370;SDS011;25099;51.946;4.838;2023-07-24T07:26:19;11.38;;;7.05;;
39370;SDS011;25099;51.946;4.838;2023-07-24T07:28:45;9.30;;;7.63;;
39370;SDS011;25099;51.946;4.838;2023-07-24T07:31:11;10.18;;;8.05;;
39370;SDS011;25099;51.946;4.838;2023-07-24T07:33:36;16.90;;;8.45;;
39370;SDS011;25099;51.946;4.838;2023-07-24T07:36:03;11.48;;;8.70;;
39370;SDS011;25099;51.946;4.838;2023-07-24T07:38:29;11.45;;;8.52;;
39370;SDS011;25099;51.946;4.838;2023-07-24T07:40:55;10.65;;;8.02;;
39370;SDS011;25099;51.946;4.838;2023-07-24T07:43:20;9.90;;;7.65;;
39370;SDS011;25099;51.946;4.838;2023-07-24T07:45:46;9.90;;;7.80;;
39370;SDS011;25099;51.946;4.838;2023-07-24T07:48:13;8.40;;;7.55;;
39370;SDS011;25099;51.946;4.838;2023-07-24T07:50:38;9.23;;;8.07;;
39370;SDS011;25099;51.946;4.838;2023-07-24T07:53:04;11.63;;;8.48;;
39370;SDS011;25099;51.946;4.838;2023-07-24T07:55:29;13.63;;;8.45;;
39370;SDS011;25099;51.946;4.838;2023-07-24T07:57:55;10.75;;;8.27;;
39370;SDS011;25099;51.946;4.838;2023-07-24T08:00:21;9.57;;;8.68;;
39370;SDS011;25099;51.946;4.838;2023-07-24T08:02:46;9.93;;;7.57;;
39370;SDS011;25099;51.946;4.838;2023-07-24T08:05:12;11.45;;;8.63;;
39370;SDS011;25099;51.946;4.838;2023-07-24T08:07:38;9.63;;;7.88;;
39370;SDS011;25099;51.946;4.838;2023-07-24T08:10:03;11.88;;;8.00;;
39370;SDS011;25099;51.946;4.838;2023-07-24T08:12:29;11.23;;;8.00;;
39370;SDS011;25099;51.946;4.838;2023-07-24T08:14:55;14.73;;;8.55;;
39370;SDS011;25099;51.946;4.838;2023-07-24T08:17:21;10.27;;;8.02;;
39370;SDS011;25099;51.946;4.838;2023-07-24T08:19:47;15.02;;;8.18;;
39370;SDS011;25099;51.946;4.838;2023-07-24T08:22:12;11.05;;;7.05;;
39370;SDS011;25099;51.946;4.838;2023-07-24T08:24:38;9.50;;;6.38;;
39370;SDS011;25099;51.946;4.838;2023-07-24T08:27:04;9.70;;;7.20;;
39370;SDS011;25099;51.946;4.838;2023-07-24T08:29:29;10.07;;;6.70;;
39370;SDS011;25099;51.946;4.838;2023-07-24T08:31:55;13.02;;;8.38;;
39370;SDS011;25099;51.946;4.838;2023-07-24T08:34:21;10.57;;;8.60;;
39370;SDS011;25099;51.946;4.838;2023-07-24T08:36:46;13.82;;;8.18;;
39370;SDS011;25099;51.946;4.838;2023-07-24T08:39:12;20.08;;;9.07;;
39370;SDS011;25099;51.946;4.838;2023-07-24T08:41:37;14.52;;;8.40;;
39370;SDS011;25099;51.946;4.838;2023-07-24T08:44:09;11.07;;;8.13;;
39370;SDS011;25099;51.946;4.838;2023-07-24T08:46:36;10.65;;;7.25;;
39370;SDS011;25099;51.946;4.838;2023-07-24T08:49:03;8.05;;;7.25;;
39370;SDS011;25099;51.946;4.838;2023-07-24T08:51:29;13.02;;;7.25;;
39370;SDS011;25099;51.946;4.838;2023-07-24T08:53:56;12.43;;;8.00;;
39370;SDS011;25099;51.946;4.838;2023-07-24T08:56:22;8.77;;;7.85;;
39370;SDS011;25099;51.946;4.838;2023-07-24T08:58:47;7.80;;;6.82;;
39370;SDS011;25099;51.946;4.838;2023-07-24T09:01:14;8.70;;;6.95;;
39370;SDS011;25099;51.946;4.838;2023-07-24T09:03:39;14.27;;;7.28;;
39370;SDS011;25099;51.946;4.838;2023-07-24T09:06:06;14.38;;;7.47;;
39370;SDS011;25099;51.946;4.838;2023-07-24T09:08:36;10.83;;;7.33;;
39370;SDS011;25099;51.946;4.838;2023-07-24T09:11:04;10.82;;;7.15;;
39370;SDS011;25099;51.946;4.838;2023-07-24T09:13:30;9.90;;;7.38;;
39370;SDS011;25099;51.946;4.838;2023-07-24T09:15:56;12.15;;;7.18;;
39370;SDS011;25099;51.946;4.838;2023-07-24T09:18:22;8.15;;;6.78;;
39370;SDS011;25099;51.946;4.838;2023-07-24T09:20:48;10.77;;;7.15;;
39370;SDS011;25099;51.946;4.838;2023-07-24T09:23:14;11.63;;;7.57;;
39370;SDS011;25099;51.946;4.838;2023-07-24T09:25:41;14.65;;;7.47;;
39370;SDS011;25099;51.946;4.838;2023-07-24T09:28:15;13.00;;;7.88;;
39370;SDS011;25099;51.946;4.838;2023-07-24T09:30:41;12.55;;;8.10;;
39370;SDS011;25099;51.946;4.838;2023-07-24T09:33:17;9.45;;;6.78;;
39370;SDS011;25099;51.946;4.838;2023-07-24T09:35:43;11.38;;;7.38;;
39370;SDS011;25099;51.946;4.838;2023-07-24T09:38:09;9.95;;;7.93;;
39370;SDS011;25099;51.946;4.838;2023-07-24T09:40:37;9.23;;;6.25;;
39370;SDS011;25099;51.946;4.838;2023-07-24T09:43:20;9.13;;;6.53;;
39370;SDS011;25099;51.946;4.838;2023-07-24T09:45:50;14.77;;;7.73;;
39370;SDS011;25099;51.946;4.838;2023-07-24T09:48:17;9.93;;;8.15;;
39370;SDS011;25099;51.946;4.838;2023-07-24T09:50:44;14.27;;;9.30;;
39370;SDS011;25099;51.946;4.838;2023-07-24T09:53:18;12.35;;;8.45;;
39370;SDS011;25099;51.946;4.838;2023-07-24T09:55:51;11.48;;;7.47;;
39370;SDS011;25099;51.946;4.838;2023-07-24T09:58:22;8.80;;;8.00;;
39370;SDS011;25099;51.946;4.838;2023-07-24T10:00:49;7.75;;;6.93;;
39370;SDS011;25099;51.946;4.838;2023-07-24T10:03:15;9.10;;;7.63;;
39370;SDS011;25099;51.946;4.838;2023-07-24T10:05:43;8.30;;;6.43;;
39370;SDS011;25099;51.946;4.838;2023-07-24T10:08:12;12.13;;;7.22;;
39370;SDS011;25099;51.946;4.838;2023-07-24T10:10:41;9.65;;;6.68;;
39370;SDS011;25099;51.946;4.838;2023-07-24T10:13:07;14.27;;;7.85;;
39370;SDS011;25099;51.946;4.838;2023-07-24T10:15:36;9.32;;;8.38;;
39370;SDS011;25099;51.946;4.838;2023-07-24T10:18:03;8.27;;;7.35;;
39370;SDS011;25099;51.946;4.838;2023-07-24T10:20:34;14.00;;;6.90;;
39370;SDS011;25099;51.946;4.838;2023-07-24T10:23:01;14.13;;;8.55;;
39370;SDS011;25099;51.946;4.838;2023-07-24T10:25:31;7.85;;;7.10;;
39370;SDS011;25099;51.946;4.838;2023-07-24T10:28:03;8.88;;;7.50;;
39370;SDS011;25099;51.946;4.838;2023-07-24T10:30:32;14.00;;;7.60;;
39370;SDS011;25099;51.946;4.838;2023-07-24T10:33:05;8.73;;;6.82;;
39370;SDS011;25099;51.946;4.838;2023-07-24T10:35:39;12.35;;;7.38;;
39370;SDS011;25099;51.946;4.838;2023-07-24T10:38:06;12.52;;;6.32;;
39370;SDS011;25099;51.946;4.838;2023-07-24T10:40:32;15.35;;;6.15;;
39370;SDS011;25099;51.946;4.838;2023-07-24T10:43:06;10.73;;;6.72;;
39370;SDS011;25099;51.946;4.838;2023-07-24T10:45:51;6.32;;;5.43;;
39370;SDS011;25099;51.946;4.838;2023-07-24T10:48:19;7.60;;;5.72;;
39370;SDS011;25099;51.946;4.838;2023-07-24T10:50:46;7.22;;;5.53;;
39370;SDS011;25099;51.946;4.838;2023-07-24T10:53:13;7.90;;;5.68;;
39370;SDS011;25099;51.946;4.838;2023-07-24T10:55:41;10.32;;;5.50;;
39370;SDS011;25099;51.946;4.838;2023-07-24T10:58:07;10.25;;;5.75;;
39370;SDS011;25099;51.946;4.838;2023-07-24T11:00:33;10.57;;;5.45;;
39370;SDS011;25099;51.946;4.838;2023-07-24T11:02:59;10.05;;;5.80;;
39370;SDS011;25099;51.946;4.838;2023-07-24T11:05:25;6.68;;;5.10;;
39370;SDS011;25099;51.946;4.838;2023-07-24T11:07:51;16.10;;;7.05;;
39370;SDS011;25099;51.946;4.838;2023-07-24T11:10:18;7.35;;;5.88;;
39370;SDS011;25099;51.946;4.838;2023-07-24T11:12:44;9.45;;;6.45;;
39370;SDS011;25099;51.946;4.838;2023-07-24T11:15:11;10.82;;;5.95;;
39370;SDS011;25099;51.946;4.838;2023-07-24T11:17:37;11.65;;;6.90;;
39370;SDS011;25099;51.946;4.838;2023-07-24T11:20:07;7.60;;;6.03;;
39370;SDS011;25099;51.946;4.838;2023-07-24T11:22:40;9.02;;;6.65;;
39370;SDS011;25099;51.946;4.838;2023-07-24T11:25:06;11.73;;;6.22;;
39370;SDS011;25099;51.946;4.838;2023-07-24T11:27:33;6.88;;;5.68;;
39370;SDS011;25099;51.946;4.838;2023-07-24T11:30:02;6.20;;;5.60;;
39370;SDS011;25099;51.946;4.838;2023-07-24T11:32:28;7.82;;;6.15;;
39370;SDS011;25099;51.946;4.838;2023-07-24T11:34:54;8.68;;;5.70;;
39370;SDS011;25099;51.946;4.838;2023-07-24T11:37:20;8.55;;;5.95;;
39370;SDS011;25099;51.946;4.838;2023-07-24T11:39:58;9.25;;;6.05;;
39370;SDS011;25099;51.946;4.838;2023-07-24T11:42:29;10.45;;;6.25;;
39370;SDS011;25099;51.946;4.838;2023-07-24T11:44:55;11.30;;;5.82;;
39370;SDS011;25099;51.946;4.838;2023-07-24T11:47:20;9.00;;;5.90;;
39370;SDS011;25099;51.946;4.838;2023-07-24T11:50:01;9.57;;;5.78;;
39370;SDS011;25099;51.946;4.838;2023-07-24T11:52:43;11.30;;;6.93;;
39370;SDS011;25099;51.946;4.838;2023-07-24T11:55:11;8.70;;;6.07;;
39370;SDS011;25099;51.946;4.838;2023-07-24T11:57:38;6.25;;;5.20;;
39370;SDS011;25099;51.946;4.838;2023-07-24T12:00:04;7.32;;;5.70;;
39370;SDS011;25099;51.946;4.838;2023-07-24T12:02:32;14.32;;;6.53;;
39370;SDS011;25099;51.946;4.838;2023-07-24T12:05:01;8.48;;;5.97;;
39370;SDS011;25099;51.946;4.838;2023-07-24T12:07:34;7.68;;;6.72;;
39370;SDS011;25099;51.946;4.838;2023-07-24T12:10:01;6.28;;;5.70;;
39370;SDS011;25099;51.946;4.838;2023-07-24T12:12:37;11.60;;;6.57;;
39370;SDS011;25099;51.946;4.838;2023-07-24T12:15:08;5.13;;;4.63;;
39370;SDS011;25099;51.946;4.838;2023-07-24T12:17:34;7.90;;;5.00;;
39370;SDS011;25099;51.946;4.838;2023-07-24T12:20:00;5.93;;;4.18;;
39370;SDS011;25099;51.946;4.838;2023-07-24T12:22:27;6.32;;;5.20;;
39370;SDS011;25099;51.946;4.838;2023-07-24T12:24:53;6.63;;;4.82;;
39370;SDS011;25099;51.946;4.838;2023-07-24T12:27:18;9.40;;;5.40;;
39370;SDS011;25099;51.946;4.838;2023-07-24T12:29:44;8.43;;;5.05;;
39370;SDS011;25099;51.946;4.838;2023-07-24T12:32:09;4.80;;;4.30;;
39370;SDS011;25099;51.946;4.838;2023-07-24T12:34:35;6.05;;;4.68;;
39370;SDS011;25099;51.946;4.838;2023-07-24T12:37:00;5.32;;;4.57;;
39370;SDS011;25099;51.946;4.838;2023-07-24T12:39:26;11.27;;;5.10;;
39370;SDS011;25099;51.946;4.838;2023-07-24T12:41:51;5.45;;;4.50;;
39370;SDS011;25099;51.946;4.838;2023-07-24T12:44:17;8.30;;;4.85;;
39370;SDS011;25099;51.946;4.838;2023-07-24T12:46:43;9.40;;;5.13;;
39370;SDS011;25099;51.946;4.838;2023-07-24T12:49:08;6.97;;;5.70;;
39370;SDS011;25099;51.946;4.838;2023-07-24T12:51:34;10.85;;;7.28;;
39370;SDS011;25099;51.946;4.838;2023-07-24T12:53:59;11.07;;;7.85;;
39370;SDS011;25099;51.946;4.838;2023-07-24T12:56:25;11.57;;;7.63;;
39370;SDS011;25099;51.946;4.838;2023-07-24T12:58:51;9.18;;;8.27;;
39370;SDS011;25099;51.946;4.838;2023-07-24T13:01:17;8.50;;;7.38;;
39370;SDS011;25099;51.946;4.838;2023-07-24T13:03:43;8.98;;;6.88;;
39370;SDS011;25099;51.946;4.838;2023-07-24T13:06:08;12.00;;;7.20;;
39370;SDS011;25099;51.946;4.838;2023-07-24T13:08:34;10.02;;;7.00;;
39370;SDS011;25099;51.946;4.838;2023-07-24T13:10:59;13.90;;;5.93;;
39370;SDS011;25099;51.946;4.838;2023-07-24T13:13:25;9.02;;;6.88;;
39370;SDS011;25099;51.946;4.838;2023-07-24T13:15:50;10.23;;;6.45;;
39370;SDS011;25099;51.946;4.838;2023-07-24T13:18:16;8.20;;;4.97;;
39370;SDS011;25099;51.946;4.838;2023-07-24T13:20:42;6.75;;;5.50;;
39370;SDS011;25099;51.946;4.838;2023-07-24T13:23:07;6.32;;;5.53;;
39370;SDS011;25099;51.946;4.838;2023-07-24T13:25:33;5.15;;;4.65;;
39370;SDS011;25099;51.946;4.838;2023-07-24T13:27:59;6.32;;;3.60;;
39370;SDS011;25099;51.946;4.838;2023-07-24T13:30:24;4.47;;;3.13;;
39370;SDS011;25099;51.946;4.838;2023-07-24T13:32:50;5.43;;;3.97;;
39370;SDS011;25099;51.946;4.838;2023-07-24T13:35:15;3.08;;;2.55;;
39370;SDS011;25099;51.946;4.838;2023-07-24T14:36:45;6.07;;;2.10;;
39370;SDS011;25099;51.946;4.838;2023-07-24T14:39:11;6.45;;;1.77;;
39370;SDS011;25099;51.946;4.838;2023-07-24T14:41:45;5.78;;;1.73;;
39370;SDS011;25099;51.946;4.838;2023-07-24T14:44:11;4.63;;;2.40;;
39370;SDS011;25099;51.946;4.838;2023-07-24T14:47:01;7.85;;;2.25;;
39370;SDS011;25099;51.946;4.838;2023-07-24T14:49:30;6.82;;;1.60;;
39370;SDS011;25099;51.946;4.838;2023-07-24T14:54:45;2.95;;;1.15;;
39370;SDS011;25099;51.946;4.838;2023-07-24T14:57:26;3.17;;;1.67;;
39370;SDS011;25099;51.946;4.838;2023-07-24T15:00:11;6.25;;;1.70;;
39370;SDS011;25099;51.946;4.838;2023-07-24T15:05:25;3.35;;;1.70;;
39370;SDS011;25099;51.946;4.838;2023-07-24T15:08:03;4.07;;;1.63;;
39370;SDS011;25099;51.946;4.838;2023-07-24T15:10:44;6.20;;;1.63;;
39370;SDS011;25099;51.946;4.838;2023-07-24T15:13:18;2.45;;;1.45;;
39370;SDS011;25099;51.946;4.838;2023-07-24T15:15:47;3.53;;;1.50;;
39370;SDS011;25099;51.946;4.838;2023-07-24T15:18:15;4.53;;;1.65;;
39370;SDS011;25099;51.946;4.838;2023-07-24T15:20:41;4.28;;;1.23;;
39370;SDS011;25099;51.946;4.838;2023-07-24T15:25:35;7.43;;;1.65;;
39370;SDS011;25099;51.946;4.838;2023-07-24T15:28:10;2.72;;;1.27;;
39370;SDS011;25099;51.946;4.838;2023-07-24T15:30:49;7.32;;;1.55;;
39370;SDS011;25099;51.946;4.838;2023-07-24T15:33:28;2.53;;;1.30;;
39370;SDS011;25099;51.946;4.838;2023-07-24T15:35:54;2.80;;;1.10;;
39370;SDS011;25099;51.946;4.838;2023-07-24T15:38:19;2.97;;;1.10;;
39370;SDS011;25099;51.946;4.838;2023-07-24T15:40:45;4.18;;;1.45;;
39370;SDS011;25099;51.946;4.838;2023-07-24T15:43:11;2.20;;;0.93;;
39370;SDS011;25099;51.946;4.838;2023-07-24T15:45:36;2.25;;;1.00;;
39370;SDS011;25099;51.946;4.838;2023-07-24T15:48:02;3.45;;;1.25;;
39370;SDS011;25099;51.946;4.838;2023-07-24T15:50:28;3.33;;;1.20;;